sensor_id;sensor_type;location;lat;lon;timestamp;pressure;altitude;pressure_sealevel;temperature;humidity
79563;BME280;69026;50.980;11.314;2023-05-07T10:28:24;99505.44;;;18.94;54.07
79563;BME280;69026;50.980;11.314;2023-05-07T10:31:08;99509.84;;;18.95;53.79
79563;BME280;69026;50.980;11.314;2023-05-07T10:33:42;99503.25;;;18.96;53.70
79563;BME280;69026;50.980;11.314;2023-05-07T10:36:10;99508.22;;;18.99;53.65
79563;BME280;69026;50.980;11.314;2023-05-07T10:38:36;99511.53;;;19.01;53.42
79563;BME280;69026;50.980;11.314;2023-05-07T10:41:02;99510.44;;;19.02;53.53
79563;BME280;69026;50.980;11.314;2023-05-07T10:43:42;99512.91;;;19.04;53.63
79563;BME280;69026;50.980;11.314;2023-05-07T10:51:43;99512.69;;;19.11;53.51
79563;BME280;69026;50.980;11.314;2023-05-07T10:54:23;99505.00;;;19.13;53.09
79563;BME280;69026;50.980;11.314;2023-05-07T11:05:41;99505.84;;;19.23;53.45
79563;BME280;69026;50.980;11.314;2023-05-07T11:08:14;99511.09;;;19.25;53.49
79563;BME280;69026;50.980;11.314;2023-05-07T11:10:56;99512.75;;;19.26;53.57
79563;BME280;69026;50.980;11.314;2023-05-07T11:13:46;99507.78;;;19.28;53.82
79563;BME280;69026;50.980;11.314;2023-05-07T11:16:40;99509.72;;;19.27;53.86
79563;BME280;69026;50.980;11.314;2023-05-07T11:19:49;99512.19;;;19.29;53.85
79563;BME280;69026;50.980;11.314;2023-05-07T11:25:23;99502.84;;;19.30;53.60
79563;BME280;69026;50.980;11.314;2023-05-07T11:27:55;99509.44;;;19.29;53.88
79563;BME280;69026;50.980;11.314;2023-05-07T11:30:23;99515.50;;;19.31;53.79
79563;BME280;69026;50.980;11.314;2023-05-07T11:32:49;99500.66;;;19.27;53.71
79563;BME280;69026;50.980;11.314;2023-05-07T11:35:17;99507.81;;;19.33;53.53
79563;BME280;69026;50.980;11.314;2023-05-07T11:37:45;99507.81;;;19.33;53.47
79563;BME280;69026;50.980;11.314;2023-05-07T11:40:13;99509.50;;;19.34;53.53
79563;BME280;69026;50.980;11.314;2023-05-07T11:42:40;99508.63;;;19.34;53.61
79563;BME280;69026;50.980;11.314;2023-05-07T11:45:08;99505.63;;;19.35;53.45
79563;BME280;69026;50.980;11.314;2023-05-07T11:47:34;99491.63;;;19.37;53.46
79563;BME280;69026;50.980;11.314;2023-05-07T11:50:05;99490.25;;;19.39;52.89
79563;BME280;69026;50.980;11.314;2023-05-07T11:52:32;99494.91;;;19.39;52.85
79563;BME280;69026;50.980;11.314;2023-05-07T11:54:59;99494.06;;;19.38;52.79
79563;BME280;69026;50.980;11.314;2023-05-07T11:57:29;99492.69;;;19.41;52.79
79563;BME280;69026;50.980;11.314;2023-05-07T11:59:56;99488.88;;;19.42;52.62
79563;BME280;69026;50.980;11.314;2023-05-07T12:02:23;99494.66;;;19.45;52.70
79563;BME280;69026;50.980;11.314;2023-05-07T12:04:54;99494.94;;;19.49;53.07
79563;BME280;69026;50.980;11.314;2023-05-07T12:07:20;99496.59;;;19.50;52.55
79563;BME280;69026;50.980;11.314;2023-05-07T12:09:47;99509.53;;;19.49;52.76
79563;BME280;69026;50.980;11.314;2023-05-07T12:12:13;99510.09;;;19.52;52.69
79563;BME280;69026;50.980;11.314;2023-05-07T12:14:44;99519.47;;;19.56;52.61
79563;BME280;69026;50.980;11.314;2023-05-07T12:17:11;99515.59;;;19.57;52.82
79563;BME280;69026;50.980;11.314;2023-05-07T12:19:40;99516.16;;;19.59;52.54
79563;BME280;69026;50.980;11.314;2023-05-07T12:22:08;99503.78;;;19.61;52.58
79563;BME280;69026;50.980;11.314;2023-05-07T12:24:57;99519.22;;;19.62;52.44
79563;BME280;69026;50.980;11.314;2023-05-07T12:27:23;99509.59;;;19.65;52.48
79563;BME280;69026;50.980;11.314;2023-05-07T12:29:50;99512.88;;;19.67;52.61
79563;BME280;69026;50.980;11.314;2023-05-07T12:32:17;99516.22;;;19.69;52.56
79563;BME280;69026;50.980;11.314;2023-05-07T12:34:44;99511.56;;;19.69;52.38
79563;BME280;69026;50.980;11.314;2023-05-07T12:37:10;99521.19;;;19.77;52.08
79563;BME280;69026;50.980;11.314;2023-05-07T12:39:36;99515.13;;;19.75;52.19
79563;BME280;69026;50.980;11.314;2023-05-07T12:42:02;99512.38;;;19.75;52.40
79563;BME280;69026;50.980;11.314;2023-05-07T12:44:32;99515.41;;;19.74;52.33
79563;BME280;69026;50.980;11.314;2023-05-07T12:47:01;99516.50;;;19.73;52.29
79563;BME280;69026;50.980;11.314;2023-05-07T12:49:27;99509.34;;;19.72;52.42
79563;BME280;69026;50.980;11.314;2023-05-07T12:51:53;99522.00;;;19.73;52.30
79563;BME280;69026;50.980;11.314;2023-05-07T12:54:32;99512.38;;;19.75;52.22
79563;BME280;69026;50.980;11.314;2023-05-07T12:57:08;99514.88;;;19.77;52.41
79563;BME280;69026;50.980;11.314;2023-05-07T12:59:40;99503.00;;;19.71;52.50
79563;BME280;69026;50.980;11.314;2023-05-07T13:02:07;99512.94;;;19.77;52.47
79563;BME280;69026;50.980;11.314;2023-05-07T13:04:35;99507.69;;;19.81;52.43
79563;BME280;69026;50.980;11.314;2023-05-07T13:07:02;99508.81;;;19.80;52.47
79563;BME280;69026;50.980;11.314;2023-05-07T13:09:28;99503.56;;;19.83;52.37
79563;BME280;69026;50.980;11.314;2023-05-07T13:11:58;99498.63;;;19.85;52.68
79563;BME280;69026;50.980;11.314;2023-05-07T13:14:27;99507.44;;;19.87;52.63
79563;BME280;69026;50.980;11.314;2023-05-07T13:16:52;99500.00;;;19.93;52.41
79563;BME280;69026;50.980;11.314;2023-05-07T13:19:18;99500.31;;;19.97;52.41
79563;BME280;69026;50.980;11.314;2023-05-07T13:21:44;99503.06;;;20.02;52.24
79563;BME280;69026;50.980;11.314;2023-05-07T13:24:10;99500.03;;;20.03;51.77
79563;BME280;69026;50.980;11.314;2023-05-07T13:26:35;99505.25;;;20.00;51.98
79563;BME280;69026;50.980;11.314;2023-05-07T13:29:01;99505.81;;;19.97;52.28
79563;BME280;69026;50.980;11.314;2023-05-07T13:31:27;99511.31;;;19.97;49.50
79563;BME280;69026;50.980;11.314;2023-05-07T13:33:53;99501.13;;;19.97;48.01
79563;BME280;69026;50.980;11.314;2023-05-07T13:36:19;99503.63;;;19.99;48.20
79563;BME280;69026;50.980;11.314;2023-05-07T13:38:45;99490.94;;;19.98;49.36
79563;BME280;69026;50.980;11.314;2023-05-07T13:41:12;99487.09;;;19.99;49.71
79563;BME280;69026;50.980;11.314;2023-05-07T13:43:38;99497.28;;;19.98;50.02
79563;BME280;69026;50.980;11.314;2023-05-07T13:46:04;99490.66;;;19.99;49.98
79563;BME280;69026;50.980;11.314;2023-05-07T13:48:30;99490.41;;;20.01;50.42
79563;BME280;69026;50.980;11.314;2023-05-07T13:50:55;99484.88;;;20.01;50.34
79563;BME280;69026;50.980;11.314;2023-05-07T13:53:21;99490.41;;;20.01;50.28
79563;BME280;69026;50.980;11.314;2023-05-07T13:55:47;99476.06;;;19.99;50.65
79563;BME280;69026;50.980;11.314;2023-05-07T13:58:13;99489.03;;;19.98;50.65
79563;BME280;69026;50.980;11.314;2023-05-07T14:00:39;99490.94;;;19.98;50.39
79563;BME280;69026;50.980;11.314;2023-05-07T14:03:05;99477.44;;;19.96;50.54
79563;BME280;69026;50.980;11.314;2023-05-07T14:05:31;99480.47;;;19.95;50.58
79563;BME280;69026;50.980;11.314;2023-05-07T14:07:57;99476.06;;;19.94;50.61
79563;BME280;69026;50.980;11.314;2023-05-07T14:10:24;99489.84;;;19.94;50.59
79563;BME280;69026;50.980;11.314;2023-05-07T14:12:50;99484.34;;;19.94;50.79
79563;BME280;69026;50.980;11.314;2023-05-07T14:15:15;99484.59;;;19.92;51.13
79563;BME280;69026;50.980;11.314;2023-05-07T14:17:42;99477.97;;;19.93;50.93
79563;BME280;69026;50.980;11.314;2023-05-07T14:20:09;99486.53;;;19.91;50.88
79563;BME280;69026;50.980;11.314;2023-05-07T14:22:36;99489.28;;;19.91;50.95
79563;BME280;69026;50.980;11.314;2023-05-07T14:25:02;99486.53;;;19.86;49.66
79563;BME280;69026;50.980;11.314;2023-05-07T14:27:28;99483.22;;;19.89;50.17
79563;BME280;69026;50.980;11.314;2023-05-07T14:29:54;99488.16;;;19.92;49.93
79563;BME280;69026;50.980;11.314;2023-05-07T14:32:20;99482.66;;;19.92;49.21
79563;BME280;69026;50.980;11.314;2023-05-07T14:34:46;99486.53;;;19.91;48.23
79563;BME280;69026;50.980;11.314;2023-05-07T14:37:12;99484.84;;;19.90;48.19
79563;BME280;69026;50.980;11.314;2023-05-07T14:39:38;99488.16;;;19.92;48.51
79563;BME280;69026;50.980;11.314;2023-05-07T14:42:04;99478.81;;;19.94;48.83
79563;BME280;69026;50.980;11.314;2023-05-07T14:44:31;99484.34;;;19.94;49.41
79563;BME280;69026;50.980;11.314;2023-05-07T14:46:56;99470.81;;;19.92;49.73
79563;BME280;69026;50.980;11.314;2023-05-07T14:49:22;99475.50;;;19.91;49.92
79563;BME280;69026;50.980;11.314;2023-05-07T14:51:49;99457.31;;;19.90;50.11
79563;BME280;69026;50.980;11.314;2023-05-07T14:54:15;99473.84;;;19.90;49.84
79563;BME280;69026;50.980;11.314;2023-05-07T14:56:41;99476.59;;;19.90;49.65
79563;BME280;69026;50.980;11.314;2023-05-07T14:59:08;99473.03;;;19.90;49.69
79563;BME280;69026;50.980;11.314;2023-05-07T15:01:35;99472.47;;;19.93;49.52
79563;BME280;69026;50.980;11.314;2023-05-07T15:04:03;99471.94;;;19.91;49.80
79563;BME280;69026;50.980;11.314;2023-05-07T15:06:29;99476.59;;;19.90;49.87
79563;BME280;69026;50.980;11.314;2023-05-07T15:08:55;99472.22;;;19.89;50.05
79563;BME280;69026;50.980;11.314;2023-05-07T15:11:21;99472.75;;;19.91;50.01
79563;BME280;69026;50.980;11.314;2023-05-07T15:13:47;99477.16;;;19.92;50.16
79563;BME280;69026;50.980;11.314;2023-05-07T15:16:12;99460.06;;;19.90;49.79
79563;BME280;69026;50.980;11.314;2023-05-07T15:18:38;99466.97;;;19.88;50.10
79563;BME280;69026;50.980;11.314;2023-05-07T15:21:04;99465.06;;;19.88;49.92
79563;BME280;69026;50.980;11.314;2023-05-07T15:23:31;99474.41;;;19.87;49.83
79563;BME280;69026;50.980;11.314;2023-05-07T15:25:57;99476.59;;;19.85;50.06
79563;BME280;69026;50.980;11.314;2023-05-07T15:28:23;99474.97;;;19.84;49.78
79563;BME280;69026;50.980;11.314;2023-05-07T15:30:52;99467.78;;;19.83;49.99
79563;BME280;69026;50.980;11.314;2023-05-07T15:33:17;99477.97;;;19.83;50.11
79563;BME280;69026;50.980;11.314;2023-05-07T15:35:43;99478.53;;;19.80;50.27
79563;BME280;69026;50.980;11.314;2023-05-07T15:38:09;99475.22;;;19.78;49.99
79563;BME280;69026;50.980;11.314;2023-05-07T15:40:36;99473.28;;;19.73;50.10
79563;BME280;69026;50.980;11.314;2023-05-07T15:43:08;99467.78;;;19.73;50.20
79563;BME280;69026;50.980;11.314;2023-05-07T15:45:39;99466.13;;;19.72;50.11
79563;BME280;69026;50.980;11.314;2023-05-07T15:48:06;99482.66;;;19.72;50.16
79563;BME280;69026;50.980;11.314;2023-05-07T15:50:32;99481.81;;;19.72;49.40
79563;BME280;69026;50.980;11.314;2023-05-07T15:52:58;99481.81;;;19.72;49.59
79563;BME280;69026;50.980;11.314;2023-05-07T15:55:24;99474.94;;;19.74;49.62
79563;BME280;69026;50.980;11.314;2023-05-07T15:57:51;99478.22;;;19.76;49.39
79563;BME280;69026;50.980;11.314;2023-05-07T16:00:16;99475.22;;;19.78;49.09
79563;BME280;69026;50.980;11.314;2023-05-07T16:02:43;99477.16;;;19.77;48.82
79563;BME280;69026;50.980;11.314;2023-05-07T16:05:09;99471.91;;;19.76;49.05
79563;BME280;69026;50.980;11.314;2023-05-07T16:07:36;99473.84;;;19.75;48.79
79563;BME280;69026;50.980;11.314;2023-05-07T16:10:03;99476.03;;;19.73;48.86
79563;BME280;69026;50.980;11.314;2023-05-07T16:12:29;99466.13;;;19.72;48.83
79563;BME280;69026;50.980;11.314;2023-05-07T16:14:55;99482.66;;;19.72;48.51
79563;BME280;69026;50.980;11.314;2023-05-07T16:17:21;99487.88;;;19.74;48.93
79563;BME280;69026;50.980;11.314;2023-05-07T16:19:47;99490.63;;;19.74;48.47
79563;BME280;69026;50.980;11.314;2023-05-07T16:22:12;99489.81;;;19.73;48.52
79563;BME280;69026;50.980;11.314;2023-05-07T16:24:38;99483.19;;;19.69;48.47
79563;BME280;69026;50.980;11.314;2023-05-07T16:27:04;99501.38;;;19.70;48.51
79563;BME280;69026;50.980;11.314;2023-05-07T16:29:31;99506.88;;;19.70;48.35
79563;BME280;69026;50.980;11.314;2023-05-07T16:31:57;99505.19;;;19.69;48.87
79563;BME280;69026;50.980;11.314;2023-05-07T16:34:23;99509.06;;;19.68;48.44
79563;BME280;69026;50.980;11.314;2023-05-07T16:36:49;99503.56;;;19.68;48.69
79563;BME280;69026;50.980;11.314;2023-05-07T16:39:15;99518.38;;;19.67;48.60
79563;BME280;69026;50.980;11.314;2023-05-07T16:41:41;99520.06;;;19.68;48.66
79563;BME280;69026;50.980;11.314;2023-05-07T16:44:08;99523.88;;;19.67;48.35
79563;BME280;69026;50.980;11.314;2023-05-07T16:46:34;99523.06;;;19.66;48.17
79563;BME280;69026;50.980;11.314;2023-05-07T16:49:00;99507.34;;;19.67;48.54
79563;BME280;69026;50.980;11.314;2023-05-07T16:51:27;99504.91;;;19.65;48.26
79563;BME280;69026;50.980;11.314;2023-05-07T16:53:53;99511.78;;;19.63;48.62
79563;BME280;69026;50.980;11.314;2023-05-07T16:56:19;99499.94;;;19.62;48.42
79563;BME280;69026;50.980;11.314;2023-05-07T16:58:46;99506.28;;;19.63;48.56
79563;BME280;69026;50.980;11.314;2023-05-07T17:01:12;99493.59;;;19.62;48.37
79563;BME280;69026;50.980;11.314;2023-05-07T17:03:39;99502.97;;;19.61;48.57
79563;BME280;69026;50.980;11.314;2023-05-07T17:06:05;99498.28;;;19.61;48.33
79563;BME280;69026;50.980;11.314;2023-05-07T17:08:37;99513.41;;;19.59;48.88
79563;BME280;69026;50.980;11.314;2023-05-07T17:11:03;99511.22;;;19.56;48.70
79563;BME280;69026;50.980;11.314;2023-05-07T17:13:29;99510.38;;;19.55;48.62
79563;BME280;69026;50.980;11.314;2023-05-07T17:15:55;99507.91;;;19.54;49.23
79563;BME280;69026;50.980;11.314;2023-05-07T17:18:21;99514.78;;;19.51;49.22
79563;BME280;69026;50.980;11.314;2023-05-07T17:20:46;99513.09;;;19.50;48.86
79563;BME280;69026;50.980;11.314;2023-05-07T17:23:12;99520.78;;;19.48;49.21
79563;BME280;69026;50.980;11.314;2023-05-07T17:25:38;99516.66;;;19.45;49.26
79563;BME280;69026;50.980;11.314;2023-05-07T17:28:04;99518.88;;;19.43;49.33
79563;BME280;69026;50.980;11.314;2023-05-07T17:30:30;99521.06;;;19.41;49.08
79563;BME280;69026;50.980;11.314;2023-05-07T17:32:55;99519.69;;;19.39;49.35
79563;BME280;69026;50.980;11.314;2023-05-07T17:35:22;99507.56;;;19.35;49.19
79563;BME280;69026;50.980;11.314;2023-05-07T17:37:47;99519.13;;;19.37;49.28
79563;BME280;69026;50.980;11.314;2023-05-07T17:40:20;99520.50;;;19.34;49.18
79563;BME280;69026;50.980;11.314;2023-05-07T17:42:47;99520.50;;;19.34;49.47
79563;BME280;69026;50.980;11.314;2023-05-07T17:45:14;99516.06;;;19.33;49.28
79563;BME280;69026;50.980;11.314;2023-05-07T17:47:40;99531.19;;;19.31;49.35
79563;BME280;69026;50.980;11.314;2023-05-07T17:50:07;99532.28;;;19.30;49.61
79563;BME280;69026;50.980;11.314;2023-05-07T17:52:35;99536.13;;;19.28;49.75
79563;BME280;69026;50.980;11.314;2023-05-07T17:55:02;99538.88;;;19.28;49.55
79563;BME280;69026;50.980;11.314;2023-05-07T17:57:28;99532.56;;;19.28;49.41
79563;BME280;69026;50.980;11.314;2023-05-07T17:59:58;99541.91;;;19.27;49.61
79563;BME280;69026;50.980;11.314;2023-05-07T18:02:24;99533.09;;;19.25;49.59
79563;BME280;69026;50.980;11.314;2023-05-07T18:04:50;99534.47;;;19.22;49.67
79563;BME280;69026;50.980;11.314;2023-05-07T18:07:15;99538.03;;;19.23;49.88
79563;BME280;69026;50.980;11.314;2023-05-07T18:09:41;99537.47;;;19.21;50.00
79563;BME280;69026;50.980;11.314;2023-05-07T18:12:07;99532.53;;;19.18;49.79
79563;BME280;69026;50.980;11.314;2023-05-07T18:14:33;99544.59;;;19.17;49.65
79563;BME280;69026;50.980;11.314;2023-05-07T18:16:59;99544.34;;;19.18;50.30
79563;BME280;69026;50.980;11.314;2023-05-07T18:19:24;99545.16;;;19.19;50.37
79563;BME280;69026;50.980;11.314;2023-05-07T18:21:51;99546.28;;;19.18;50.43
79563;BME280;69026;50.980;11.314;2023-05-07T18:24:19;99538.84;;;19.18;50.28
79563;BME280;69026;50.980;11.314;2023-05-07T18:26:45;99533.56;;;19.12;50.30
79563;BME280;69026;50.980;11.314;2023-05-07T18:29:12;99544.03;;;19.15;50.36
79563;BME280;69026;50.980;11.314;2023-05-07T18:31:38;99552.28;;;19.15;50.34
79563;BME280;69026;50.980;11.314;2023-05-07T18:34:04;99556.16;;;19.14;50.34
79563;BME280;69026;50.980;11.314;2023-05-07T18:36:30;99558.06;;;19.13;50.72
79563;BME280;69026;50.980;11.314;2023-05-07T18:38:56;99552.84;;;19.17;50.41
79563;BME280;69026;50.980;11.314;2023-05-07T18:41:22;99560.84;;;19.18;50.41
79563;BME280;69026;50.980;11.314;2023-05-07T18:43:48;99561.41;;;19.20;50.52
79563;BME280;69026;50.980;11.314;2023-05-07T18:46:14;99553.97;;;19.21;50.32
79563;BME280;69026;50.980;11.314;2023-05-07T18:48:40;99570.47;;;19.21;50.62
79563;BME280;69026;50.980;11.314;2023-05-07T18:51:05;99572.97;;;19.22;50.42
79563;BME280;69026;50.980;11.314;2023-05-07T18:53:32;99565.53;;;19.18;50.45
79563;BME280;69026;50.980;11.314;2023-05-07T18:55:58;99577.13;;;19.25;50.44
79563;BME280;69026;50.980;11.314;2023-05-07T18:58:25;99584.25;;;19.26;50.75
79563;BME280;69026;50.980;11.314;2023-05-07T19:00:51;99574.94;;;19.27;50.68
79563;BME280;69026;50.980;11.314;2023-05-07T19:03:17;99584.81;;;19.28;50.59
79563;BME280;69026;50.980;11.314;2023-05-07T19:05:43;99584.81;;;19.28;50.39
79563;BME280;69026;50.980;11.314;2023-05-07T19:08:10;99589.22;;;19.29;50.58
79563;BME280;69026;50.980;11.314;2023-05-07T19:10:35;99590.31;;;19.28;50.71
79563;BME280;69026;50.980;11.314;2023-05-07T19:13:01;99593.91;;;19.28;50.21
79563;BME280;69026;50.980;11.314;2023-05-07T19:15:27;99596.38;;;19.30;50.56
79563;BME280;69026;50.980;11.314;2023-05-07T19:17:53;99594.72;;;19.29;50.59
79563;BME280;69026;50.980;11.314;2023-05-07T19:20:19;99598.03;;;19.31;50.54
79563;BME280;69026;50.980;11.314;2023-05-07T19:22:45;99609.03;;;19.31;50.65
79563;BME280;69026;50.980;11.314;2023-05-07T19:25:12;99607.41;;;19.30;50.79
79563;BME280;69026;50.980;11.314;2023-05-07T19:27:38;99606.56;;;19.30;50.63
79563;BME280;69026;50.980;11.314;2023-05-07T19:30:06;99599.69;;;19.27;50.61
79563;BME280;69026;50.980;11.314;2023-05-07T19:32:32;99617.03;;;19.33;50.94
79563;BME280;69026;50.980;11.314;2023-05-07T19:34:58;99615.09;;;19.33;50.72
79563;BME280;69026;50.980;11.314;2023-05-07T19:37:24;99623.34;;;19.33;50.94
79563;BME280;69026;50.980;11.314;2023-05-07T19:39:53;99621.72;;;19.32;50.71
79563;BME280;69026;50.980;11.314;2023-05-07T19:42:19;99622.78;;;19.31;50.97
79563;BME280;69026;50.980;11.314;2023-05-07T19:44:45;99623.91;;;19.30;50.86
79563;BME280;69026;50.980;11.314;2023-05-07T19:47:11;99621.69;;;19.27;50.79
79563;BME280;69026;50.980;11.314;2023-05-07T19:49:37;99635.72;;;19.31;50.96
79563;BME280;69026;50.980;11.314;2023-05-07T19:52:03;99631.03;;;19.31;50.84
79563;BME280;69026;50.980;11.314;2023-05-07T19:54:29;99631.03;;;19.31;50.83
79563;BME280;69026;50.980;11.314;2023-05-07T19:56:55;99638.72;;;19.29;50.77
79563;BME280;69026;50.980;11.314;2023-05-07T19:59:23;99636.56;;;19.31;51.06
79563;BME280;69026;50.980;11.314;2023-05-07T20:01:49;99640.97;;;19.32;51.00
79563;BME280;69026;50.980;11.314;2023-05-07T20:04:15;99641.78;;;19.33;50.75
79563;BME280;69026;50.980;11.314;2023-05-07T20:06:41;99648.69;;;19.35;50.87
79563;BME280;69026;50.980;11.314;2023-05-07T20:09:07;99650.38;;;19.36;50.82
79563;BME280;69026;50.980;11.314;2023-05-07T20:11:37;99653.66;;;19.38;50.78
79563;BME280;69026;50.980;11.314;2023-05-07T20:14:04;99652.56;;;19.39;50.90
79563;BME280;69026;50.980;11.314;2023-05-07T20:16:31;99654.22;;;19.40;50.67
79563;BME280;69026;50.980;11.314;2023-05-07T20:18:58;99653.13;;;19.41;50.99
79563;BME280;69026;50.980;11.314;2023-05-07T20:21:24;99656.97;;;19.40;50.99
79563;BME280;69026;50.980;11.314;2023-05-07T20:23:51;99653.66;;;19.38;50.78
79563;BME280;69026;50.980;11.314;2023-05-07T20:26:17;99643.19;;;19.35;50.94
79563;BME280;69026;50.980;11.314;2023-05-07T20:28:43;99646.78;;;19.41;50.66
79563;BME280;69026;50.980;11.314;2023-05-07T20:31:09;99648.47;;;19.42;50.94
79563;BME280;69026;50.980;11.314;2023-05-07T20:33:34;99642.13;;;19.41;50.72
79563;BME280;69026;50.980;11.314;2023-05-07T20:36:06;99646.78;;;19.41;50.85
79563;BME280;69026;50.980;11.314;2023-05-07T20:38:32;99642.13;;;19.41;50.66
79563;BME280;69026;50.980;11.314;2023-05-07T20:41:10;99650.38;;;19.41;50.74
79563;BME280;69026;50.980;11.314;2023-05-07T20:43:37;99645.97;;;19.40;50.98
79563;BME280;69026;50.980;11.314;2023-05-07T20:46:03;99655.31;;;19.39;50.72
79563;BME280;69026;50.980;11.314;2023-05-07T20:48:32;99651.19;;;19.37;51.02
79563;BME280;69026;50.980;11.314;2023-05-07T20:50:59;99661.09;;;19.38;51.15
79563;BME280;69026;50.980;11.314;2023-05-07T20:53:32;99661.91;;;19.38;51.02
79563;BME280;69026;50.980;11.314;2023-05-07T20:55:58;99655.56;;;19.38;51.01
79563;BME280;69026;50.980;11.314;2023-05-07T20:58:26;99658.63;;;19.36;50.84
79563;BME280;69026;50.980;11.314;2023-05-07T21:00:53;99655.56;;;19.38;51.15
79563;BME280;69026;50.980;11.314;2023-05-07T21:03:19;99667.16;;;19.40;50.92
79563;BME280;69026;50.980;11.314;2023-05-07T21:05:52;99666.34;;;19.39;51.05
79563;BME280;69026;50.980;11.314;2023-05-07T21:08:18;99673.47;;;19.40;51.12
79563;BME280;69026;50.980;11.314;2023-05-07T21:10:45;99675.66;;;19.38;51.04
79563;BME280;69026;50.980;11.314;2023-05-07T21:13:11;99675.66;;;19.38;51.27
79563;BME280;69026;50.980;11.314;2023-05-07T21:15:37;99677.88;;;19.36;50.96
79563;BME280;69026;50.980;11.314;2023-05-07T21:18:03;99676.19;;;19.35;51.00
79563;BME280;69026;50.980;11.314;2023-05-07T21:20:29;99676.19;;;19.35;50.99
79563;BME280;69026;50.980;11.314;2023-05-07T21:22:55;99678.69;;;19.37;51.06
79563;BME280;69026;50.980;11.314;2023-05-07T21:25:21;99674.00;;;19.32;51.29
79563;BME280;69026;50.980;11.314;2023-05-07T21:27:46;99668.19;;;19.34;51.34
79563;BME280;69026;50.980;11.314;2023-05-07T21:30:13;99672.88;;;19.33;51.13
79563;BME280;69026;50.980;11.314;2023-05-07T21:32:39;99676.75;;;19.32;51.19
79563;BME280;69026;50.980;11.314;2023-05-07T21:35:05;99682.50;;;19.31;51.36
79563;BME280;69026;50.980;11.314;2023-05-07T21:37:31;99677.25;;;19.29;51.46
79563;BME280;69026;50.980;11.314;2023-05-07T21:39:57;99682.25;;;19.32;51.28
79563;BME280;69026;50.980;11.314;2023-05-07T21:42:23;99683.06;;;19.33;51.21
79563;BME280;69026;50.980;11.314;2023-05-07T21:44:49;99672.31;;;19.31;51.17
79563;BME280;69026;50.980;11.314;2023-05-07T21:47:15;99683.06;;;19.33;51.47
79563;BME280;69026;50.980;11.314;2023-05-07T21:49:41;99680.56;;;19.31;51.01
79563;BME280;69026;50.980;11.314;2023-05-07T21:52:14;99677.81;;;19.31;51.29
79563;BME280;69026;50.980;11.314;2023-05-07T21:54:40;99675.91;;;19.32;51.22
79563;BME280;69026;50.980;11.314;2023-05-07T21:57:07;99680.56;;;19.31;50.97
79563;BME280;69026;50.980;11.314;2023-05-07T21:59:32;99675.06;;;19.31;51.42
79563;BME280;69026;50.980;11.314;2023-05-07T22:01:59;99673.16;;;19.32;51.30
79563;BME280;69026;50.980;11.314;2023-05-07T22:04:25;99679.75;;;19.31;51.23
79563;BME280;69026;50.980;11.314;2023-05-07T22:06:51;99686.06;;;19.31;51.35
79563;BME280;69026;50.980;11.314;2023-05-07T22:09:17;99686.06;;;19.31;51.55
79563;BME280;69026;50.980;11.314;2023-05-07T22:11:43;99676.72;;;19.27;51.24
79563;BME280;69026;50.980;11.314;2023-05-07T22:14:09;99682.75;;;19.29;51.38
79563;BME280;69026;50.980;11.314;2023-05-07T22:16:35;99684.44;;;19.30;51.13
79563;BME280;69026;50.980;11.314;2023-05-07T22:19:01;99678.91;;;19.30;51.55
79563;BME280;69026;50.980;11.314;2023-05-07T22:21:27;99673.41;;;19.30;51.60
79563;BME280;69026;50.980;11.314;2023-05-07T22:23:53;99676.72;;;19.27;51.59
79563;BME280;69026;50.980;11.314;2023-05-07T22:26:19;99680.28;;;19.27;51.51
79563;BME280;69026;50.980;11.314;2023-05-07T22:28:44;99690.47;;;19.27;51.35
79563;BME280;69026;50.980;11.314;2023-05-07T22:31:10;99686.03;;;19.26;51.57
79563;BME280;69026;50.980;11.314;2023-05-07T22:33:36;99685.22;;;19.25;51.61
79563;BME280;69026;50.980;11.314;2023-05-07T22:36:02;99681.66;;;19.25;51.55
79563;BME280;69026;50.980;11.314;2023-05-07T22:38:29;99680.53;;;19.26;51.42
79563;BME280;69026;50.980;11.314;2023-05-07T22:40:55;99684.09;;;19.26;51.54
79563;BME280;69026;50.980;11.314;2023-05-07T22:43:21;99681.34;;;19.26;51.48
79563;BME280;69026;50.980;11.314;2023-05-07T22:45:46;99680.28;;;19.27;51.72
79563;BME280;69026;50.980;11.314;2023-05-07T22:48:12;99686.03;;;19.26;51.43
79563;BME280;69026;50.980;11.314;2023-05-07T22:50:38;99675.56;;;19.23;51.58
79563;BME280;69026;50.980;11.314;2023-05-07T22:53:05;99671.16;;;19.22;51.62
79563;BME280;69026;50.980;11.314;2023-05-07T22:55:31;99676.97;;;19.25;51.66
79563;BME280;69026;50.980;11.314;2023-05-07T22:57:57;99675.03;;;19.26;51.66
79563;BME280;69026;50.980;11.314;2023-05-07T23:00:23;99675.03;;;19.26;51.50
79563;BME280;69026;50.980;11.314;2023-05-07T23:02:49;99676.13;;;19.20;51.61
79563;BME280;69026;50.980;11.314;2023-05-07T23:05:15;99685.47;;;19.24;51.72
79563;BME280;69026;50.980;11.314;2023-05-07T23:07:41;99685.47;;;19.24;51.80
79563;BME280;69026;50.980;11.314;2023-05-07T23:10:07;99683.00;;;19.22;51.93
79563;BME280;69026;50.980;11.314;2023-05-07T23:12:33;99682.16;;;19.22;51.73
79563;BME280;69026;50.980;11.314;2023-05-07T23:14:59;99684.91;;;19.22;51.60
79563;BME280;69026;50.980;11.314;2023-05-07T23:17:25;99678.31;;;19.23;51.69
79563;BME280;69026;50.980;11.314;2023-05-07T23:19:51;99671.16;;;19.22;51.49
79563;BME280;69026;50.980;11.314;2023-05-07T23:22:17;99675.00;;;19.21;51.90
79563;BME280;69026;50.980;11.314;2023-05-07T23:24:43;99672.00;;;19.22;51.88
79563;BME280;69026;50.980;11.314;2023-05-07T23:27:09;99672.25;;;19.21;51.89
79563;BME280;69026;50.980;11.314;2023-05-07T23:29:34;99673.91;;;19.22;51.73
79563;BME280;69026;50.980;11.314;2023-05-07T23:32:00;99676.41;;;19.23;51.79
79563;BME280;69026;50.980;11.314;2023-05-07T23:34:26;99672.00;;;19.22;51.60